Time;durP1;ratioP1;P1;durP2;ratioP2;P2;SDS_P1;SDS_P2;PMS_P1;PMS_P2;Temp;Humidity;BMP_temperature;BMP_pressure;BME280_temperature;BME280_humidity;BME280_pressure;Samples;Min_cycle;Max_cycle;Signal;HPM_P1;HPM_P2
2022/12/30 06:31:50;;;;;;;;;5.00;4.00;;;;;9.71;98.27;100612.72;6218663;22;45431;-60
2022/12/30 06:34:15;;;;;;;;;5.00;3.00;;;;;9.74;98.07;100601.91;6247895;22;45328;-60
2022/12/30 06:36:40;;;;;;;;;2.00;2.00;;;;;9.76;98.67;100593.88;6247491;22;45348;-61
2022/12/30 06:39:06;;;;;;;;;3.00;3.00;;;;;9.80;98.35;100583.97;6246956;22;68315;-61
2022/12/30 06:41:31;;;;;;;;;7.00;2.00;;;;;9.82;98.90;100571.47;6247523;22;45388;-61
2022/12/30 06:43:56;;;;;;;;;6.00;4.00;;;;;9.86;98.49;100567.72;6246630;22;56202;-62
2022/12/30 06:46:22;;;;;;;;;6.67;1.67;;;;;10.44;95.11;100579.81;6247186;22;51511;-62
2022/12/30 06:48:47;;;;;;;;;4.00;3.00;;;;;10.37;96.32;100549.19;6246904;22;67030;-62
2022/12/30 06:51:12;;;;;;;;;4.00;2.33;;;;;10.10;95.62;100558.50;6246484;22;64187;-61
2022/12/30 06:53:38;;;;;;;;;5.00;4.00;;;;;9.98;97.30;100550.28;6247766;22;45317;-61
2022/12/30 06:56:03;;;;;;;;;3.67;3.67;;;;;9.95;97.72;100567.25;6247290;22;56530;-61
2022/12/30 06:58:29;;;;;;;;;2.33;2.33;;;;;9.96;98.03;100552.16;6219010;22;45997;-62
2022/12/30 07:00:54;;;;;;;;;7.67;4.00;;;;;9.93;98.49;100551.38;6247695;22;45274;-61
2022/12/30 07:03:20;;;;;;;;;4.67;1.00;;;;;9.93;98.17;100543.41;6247744;22;45276;-61
2022/12/30 07:05:45;;;;;;;;;7.33;3.00;;;;;9.91;99.27;100541.78;6220943;22;45340;-60
2022/12/30 07:08:11;;;;;;;;;5.67;3.67;;;;;9.93;99.06;100527.47;6246760;22;66254;-61
2022/12/30 07:10:36;;;;;;;;;4.00;4.00;;;;;9.96;98.58;100530.91;6247588;22;45268;-61
2022/12/30 07:13:02;;;;;;;;;3.00;2.00;;;;;9.95;98.91;100519.41;6220620;22;45335;-60
2022/12/30 07:15:27;;;;;;;;;5.67;3.00;;;;;9.98;99.02;100505.13;6246476;22;45276;-61
2022/12/30 07:17:52;;;;;;;;;3.33;3.00;;;;;9.97;99.65;100498.94;6247473;22;45327;-62
2022/12/30 07:20:18;;;;;;;;;5.33;3.00;;;;;10.01;99.65;100496.97;6247933;22;45276;-61
2022/12/30 07:22:43;;;;;;;;;5.00;4.00;;;;;10.06;99.07;100493.16;6219827;22;45362;-60
2022/12/30 07:25:08;;;;;;;;;4.67;2.67;;;;;10.07;98.83;100480.72;6248350;22;45338;-60
2022/12/30 07:27:34;;;;;;;;;4.00;2.00;;;;;10.11;98.71;100479.59;6246864;22;67463;-61
2022/12/30 07:29:59;;;;;;;;;2.00;2.00;;;;;10.14;98.46;100474.13;6247571;22;45276;-60
2022/12/30 07:32:25;;;;;;;;;5.67;4.00;;;;;10.18;98.28;100465.06;6247368;22;45440;-60
2022/12/30 07:34:50;;;;;;;;;2.67;2.00;;;;;10.20;98.10;100463.16;6245831;22;55629;-61
2022/12/30 07:37:15;;;;;;;;;1.67;0.67;;;;;10.23;98.25;100459.50;6246537;22;63549;-61
2022/12/30 07:39:41;;;;;;;;;4.33;2.00;;;;;10.25;98.10;100462.94;6247919;22;45335;-61
2022/12/30 07:42:06;;;;;;;;;3.00;1.33;;;;;10.27;98.19;100445.97;6219602;22;46016;-61
2022/12/30 07:44:31;;;;;;;;;4.00;2.67;;;;;10.32;97.70;100436.88;6247329;22;52034;-61
2022/12/30 07:46:57;;;;;;;;;7.00;2.00;;;;;10.36;97.24;100449.94;6247166;22;46853;-61
2022/12/30 07:49:22;;;;;;;;;3.00;3.00;;;;;10.36;97.13;100459.72;6219790;22;45342;-61
2022/12/30 07:51:47;;;;;;;;;2.67;1.00;;;;;10.38;97.25;100450.72;6247150;22;57587;-61
2022/12/30 07:54:13;;;;;;;;;1.33;1.33;;;;;10.40;97.04;100440.88;6247109;22;56183;-61
2022/12/30 07:56:38;;;;;;;;;5.00;2.00;;;;;10.47;96.29;100461.78;6219627;22;66059;-61
2022/12/30 07:59:03;;;;;;;;;3.00;1.00;;;;;10.45;96.73;100453.88;6220211;22;59243;-62
2022/12/30 08:01:29;;;;;;;;;7.67;2.00;;;;;10.47;96.19;100448.47;6220308;22;45550;-62
2022/12/30 08:03:55;;;;;;;;;4.00;2.00;;;;;10.49;95.82;100450.13;6247945;22;45576;-62
2022/12/30 08:06:20;;;;;;;;;1.33;1.33;;;;;10.51;95.88;100458.03;6247744;22;45583;-62
2022/12/30 08:08:46;;;;;;;;;3.00;2.00;;;;;10.52;95.76;100443.78;6220988;22;45393;-62
2022/12/30 08:11:14;;;;;;;;;1.33;1.00;;;;;10.56;95.21;100427.56;6247332;22;45308;-62
2022/12/30 08:13:41;;;;;;;;;1.33;1.33;;;;;10.56;94.97;100426.72;6247744;22;45391;-62
2022/12/30 08:16:09;;;;;;;;;3.00;1.00;;;;;10.57;94.60;100400.03;6247549;22;45210;-62
2022/12/30 08:18:34;;;;;;;;;5.67;1.67;;;;;10.54;95.12;100404.66;6247050;22;45365;-63
2022/12/30 08:21:06;;;;;;;;;2.33;1.00;;;;;10.55;95.23;100398.41;6246101;22;45288;-63
2022/12/30 08:23:32;;;;;;;;;3.00;3.00;;;;;10.51;96.26;100394.22;6220606;22;45380;-62
2022/12/30 08:26:03;;;;;;;;;2.33;1.33;;;;;23.15;100.00;100374.66;6245917;22;45256;-62
2022/12/30 08:28:29;;;;;;;;;2.00;2.00;;;;;-147.14;100.00;58812.66;6247546;22;45323;-61
2022/12/30 08:30:54;;;;;;;;;2.00;2.00;;;;;-147.14;100.00;58812.66;6247031;22;45387;-60
2022/12/30 08:33:20;;;;;;;;;2.00;2.00;;;;;-147.14;100.00;58812.66;6220039;22;45333;-60
2022/12/30 08:35:45;;;;;;;;;3.33;2.67;;;;;-147.14;100.00;58812.66;6246548;22;45269;-61
2022/12/30 08:38:10;;;;;;;;;3.00;1.33;;;;;-147.14;100.00;58812.66;6247189;22;45446;-61
2022/12/30 08:40:36;;;;;;;;;1.67;1.67;;;;;-147.14;100.00;58812.66;6246901;22;45284;-60
2022/12/30 08:43:01;;;;;;;;;4.00;2.00;;;;;-147.14;100.00;58812.66;6247241;22;45426;-60
2022/12/30 08:45:27;;;;;;;;;1.00;1.00;;;;;-147.14;100.00;58812.66;6246208;22;64094;-60
2022/12/30 08:47:52;;;;;;;;;2.00;2.00;;;;;-147.14;100.00;58812.66;6246873;22;62666;-60
2022/12/30 08:50:18;;;;;;;;;2.67;2.67;;;;;-147.14;100.00;58812.66;6246520;22;60728;-60
2022/12/30 08:52:43;;;;;;;;;3.00;2.00;;;;;-147.14;100.00;58812.66;6246825;22;59921;-61
2022/12/30 08:55:09;;;;;;;;;1.00;1.00;;;;;-147.14;100.00;58812.66;6246442;22;45396;-61
2022/12/30 08:57:37;;;;;;;;;2.00;2.00;;;;;-147.14;100.00;58812.66;6246704;22;45361;-61
2022/12/30 09:00:03;;;;;;;;;1.33;1.33;;;;;-147.14;100.00;58812.66;6246200;22;45455;-61
2022/12/30 09:02:28;;;;;;;;;5.00;3.00;;;;;-147.14;100.00;58812.66;6246076;22;45394;-61
2022/12/30 09:04:54;;;;;;;;;3.00;3.00;;;;;-147.14;100.00;58812.66;6246051;22;67762;-59
2022/12/30 09:07:19;;;;;;;;;2.00;2.00;;;;;-147.14;100.00;58812.66;6245962;22;45346;-60
2022/12/30 09:09:44;;;;;;;;;4.33;2.00;;;;;-147.14;100.00;58812.66;6218363;22;56981;-60
2022/12/30 09:12:09;;;;;;;;;1.33;1.33;;;;;-147.14;100.00;58812.66;6245816;22;45531;-60
2022/12/30 09:14:35;;;;;;;;;1.00;1.00;;;;;-147.14;100.00;58812.66;6244742;22;67436;-59
2022/12/30 09:17:00;;;;;;;;;2.00;2.00;;;;;-147.14;100.00;58812.66;6245316;22;55139;-59
2022/12/30 09:19:26;;;;;;;;;2.00;2.00;;;;;-147.14;100.00;58812.66;6246506;22;58046;-59
2022/12/30 09:21:51;;;;;;;;;1.67;1.67;;;;;-147.14;100.00;58812.66;6247653;22;45336;-58
2022/12/30 09:24:16;;;;;;;;;3.00;3.00;;;;;-147.14;100.00;58812.66;6220018;22;46088;-59
2022/12/30 09:26:42;;;;;;;;;3.33;1.67;;;;;-147.14;100.00;58812.66;6245556;22;45380;-59
2022/12/30 09:29:07;;;;;;;;;1.00;1.00;;;;;-147.14;100.00;58812.66;6246166;22;45309;-59
2022/12/30 09:31:33;;;;;;;;;2.00;2.00;;;;;-147.14;100.00;58812.66;6246258;22;58053;-59
2022/12/30 09:33:58;;;;;;;;;1.00;1.00;;;;;-147.14;100.00;58812.66;6247418;22;46008;-59
2022/12/30 09:36:24;;;;;;;;;2.33;2.33;;;;;-147.14;100.00;58812.66;6247219;22;45333;-59
2022/12/30 09:38:49;;;;;;;;;2.00;2.00;;;;;-147.14;100.00;58812.66;6247676;22;56438;-60
2022/12/30 09:45:00;;;;;;;;;3.67;3.00;;;;;-147.14;100.00;58812.66;6224870;22;45421;-59
2022/12/30 09:47:32;;;;;;;;;2.33;1.00;;;;;-147.14;100.00;58812.66;6248190;22;45367;-59
2022/12/30 09:50:07;;;;;;;;;2.00;2.00;;;;;-147.14;100.00;58812.66;6221061;22;45432;-59
2022/12/30 09:52:37;;;;;;;;;2.67;2.00;;;;;-147.14;100.00;58812.66;6221118;22;45298;-60
2022/12/30 09:55:09;;;;;;;;;1.00;1.00;;;;;-147.14;100.00;58812.66;6247724;22;46058;-60
2022/12/30 09:57:36;;;;;;;;;2.33;1.00;;;;;-147.14;100.00;58812.66;6220395;22;45203;-60
2022/12/30 10:00:04;;;;;;;;;1.67;1.67;;;;;-147.14;100.00;58812.66;6247576;22;45333;-59
2022/12/30 10:02:47;;;;;;;;;1.67;1.67;;;;;-147.14;100.00;58812.66;6247622;22;45398;-59
2022/12/30 10:05:13;;;;;;;;;3.00;2.33;;;;;-147.14;100.00;58812.66;6248221;22;46098;-59
2022/12/30 10:07:48;;;;;;;;;1.00;1.00;;;;;-147.14;100.00;58812.66;6247820;22;45758;-59
2022/12/30 10:10:19;;;;;;;;;1.33;1.00;;;;;-147.14;100.00;58812.66;6247929;22;45277;-59
2022/12/30 10:12:54;;;;;;;;;4.00;2.00;;;;;-147.14;100.00;58812.66;6247440;22;45297;-59
2022/12/30 10:15:37;;;;;;;;;1.00;0.00;;;;;-147.14;100.00;58812.66;6247481;22;45272;-60
2022/12/30 10:18:05;;;;;;;;;2.00;1.00;;;;;-147.14;100.00;58812.66;6220313;22;45313;-60
2022/12/30 10:20:57;;;;;;;;;2.00;2.00;;;;;-147.14;100.00;58812.66;6248627;22;45370;-60
2022/12/30 10:23:25;;;;;;;;;2.00;1.67;;;;;-147.14;100.00;58812.66;6247212;22;45311;-62
2022/12/30 10:25:59;;;;;;;;;2.00;2.00;;;;;-147.14;100.00;58812.66;6247881;22;45334;-60
2022/12/30 10:28:29;;;;;;;;;2.00;1.00;;;;;-147.14;100.00;58812.66;6247962;22;45311;-60
2022/12/30 10:30:54;;;;;;;;;1.00;1.00;;;;;-147.14;100.00;58812.66;6246651;22;45459;-61
2022/12/30 10:33:22;;;;;;;;;2.00;2.00;;;;;-147.14;100.00;58812.66;6219675;22;58515;-61
2022/12/30 10:35:52;;;;;;;;;4.00;3.00;;;;;-147.14;100.00;58812.66;6247706;22;46940;-59
2022/12/30 10:38:21;;;;;;;;;0.00;0.00;;;;;-147.14;100.00;58812.66;6221061;22;45444;-60
2022/12/30 10:41:23;;;;;;;;;2.00;0.00;;;;;-147.14;100.00;58812.66;6221647;22;45349;-61
2022/12/30 10:44:07;;;;;;;;;1.00;1.00;;;;;-147.14;100.00;58812.66;6248600;22;45444;-60
2022/12/30 10:46:38;;;;;;;;;1.00;1.00;;;;;-147.14;100.00;58812.66;6247619;22;46173;-59
2022/12/30 10:49:15;;;;;;;;;1.00;1.00;;;;;-147.14;100.00;58812.66;6247912;22;45387;-59
2022/12/30 10:51:41;;;;;;;;;1.00;1.00;;;;;-147.14;100.00;58812.66;6248127;22;45293;-60
2022/12/30 10:54:09;;;;;;;;;0.67;0.67;;;;;-147.14;100.00;58812.66;6247678;22;60225;-60
2022/12/30 10:56:35;;;;;;;;;0.00;0.00;;;;;-147.14;100.00;58812.66;6220274;22;45335;-61
2022/12/30 10:59:06;;;;;;;;;0.00;0.00;;;;;-147.14;100.00;58812.66;6221046;22;45352;-60
2022/12/30 11:01:35;;;;;;;;;0.00;0.00;;;;;-147.14;100.00;58812.66;6194458;22;45440;-60
2022/12/30 11:04:01;;;;;;;;;0.00;0.00;;;;;-147.14;100.00;58812.66;6220747;22;45349;-60
2022/12/30 11:06:35;;;;;;;;;0.00;0.00;;;;;-147.14;100.00;58812.66;6220624;22;47080;-59
2022/12/30 11:09:13;;;;;;;;;1.67;1.67;;;;;-147.14;100.00;58812.66;6220727;22;45318;-60
2022/12/30 11:14:44;;;;;;;;;1.00;0.00;;;;;-147.14;100.00;58812.66;6225216;22;45245;-60
2022/12/30 11:17:15;;;;;;;;;0.00;0.00;;;;;-147.14;100.00;58812.66;6248198;22;45428;-61
2022/12/30 11:19:52;;;;;;;;;0.33;0.33;;;;;-147.14;100.00;58812.66;6247707;22;45232;-61
2022/12/30 11:22:17;;;;;;;;;0.00;0.00;;;;;-147.14;100.00;58812.66;6221019;22;45425;-61
2022/12/30 11:24:55;;;;;;;;;1.00;0.00;;;;;-147.14;100.00;58812.66;6248486;22;45330;-60
2022/12/30 11:27:37;;;;;;;;;0.00;0.00;;;;;-147.14;100.00;58812.66;6247945;22;45422;-60
2022/12/30 11:30:03;;;;;;;;;0.00;0.00;;;;;-147.14;100.00;58812.66;6248127;22;45544;-62
2022/12/30 11:32:28;;;;;;;;;0.00;0.00;;;;;-147.14;100.00;58812.66;6246738;22;45459;-61
2022/12/30 11:34:53;;;;;;;;;0.33;0.33;;;;;-147.14;100.00;58812.66;6247359;22;57290;-61
2022/12/30 11:37:34;;;;;;;;;0.00;0.00;;;;;-147.14;100.00;58812.66;6247272;22;64623;-61
2022/12/30 11:40:31;;;;;;;;;0.00;0.00;;;;;-147.14;100.00;58812.66;6246521;22;45292;-61
2022/12/30 11:43:17;;;;;;;;;1.00;0.00;;;;;-147.14;100.00;58812.66;6247744;22;45288;-62
2022/12/30 11:46:05;;;;;;;;;0.00;0.00;;;;;-147.14;100.00;58812.66;6247819;22;45411;-63
2022/12/30 11:48:34;;;;;;;;;0.00;0.00;;;;;-147.14;100.00;58812.66;6220506;22;46234;-61
2022/12/30 11:51:01;;;;;;;;;0.00;0.00;;;;;-147.14;100.00;58812.66;6220151;22;45353;-61
2022/12/30 11:53:30;;;;;;;;;1.00;1.00;;;;;-147.14;100.00;58812.66;6221476;22;45346;-63
2022/12/30 11:55:56;;;;;;;;;0.00;0.00;;;;;-147.14;100.00;58812.66;6247621;22;45436;-62
2022/12/30 11:58:21;;;;;;;;;0.00;0.00;;;;;-147.14;100.00;58812.66;6220534;22;45951;-62
2022/12/30 12:00:57;;;;;;;;;0.00;0.00;;;;;-147.14;100.00;58812.66;6247038;22;59139;-62
2022/12/30 12:03:23;;;;;;;;;0.67;0.67;;;;;-147.14;100.00;58812.66;6221247;22;45298;-61
2022/12/30 12:06:09;;;;;;;;;0.00;0.00;;;;;-147.14;100.00;58812.66;6220297;22;53053;-61
2022/12/30 12:09:01;;;;;;;;;0.00;0.00;;;;;-147.14;100.00;58812.66;6247512;22;46162;-61
2022/12/30 12:11:32;;;;;;;;;0.00;0.00;;;;;-147.14;100.00;58812.66;6240071;22;45431;-61
2022/12/30 12:14:39;;;;;;;;;1.00;0.00;;;;;-147.14;100.00;58812.66;6221242;22;45335;-61
2022/12/30 12:17:25;;;;;;;;;0.00;0.00;;;;;-147.14;100.00;58812.66;6179593;22;46149;-60
2022/12/30 12:20:05;;;;;;;;;0.00;0.00;;;;;-147.14;100.00;58812.66;6247781;22;45221;-62
2022/12/30 12:22:42;;;;;;;;;0.00;0.00;;;;;-147.14;100.00;58812.66;6220745;22;45375;-63
2022/12/30 12:25:19;;;;;;;;;1.33;0.00;;;;;-147.14;100.00;58812.66;6220758;22;45348;-61
2022/12/30 12:27:44;;;;;;;;;0.00;0.00;;;;;-147.14;100.00;58812.66;6220676;22;45467;-62
2022/12/30 12:30:13;;;;;;;;;0.00;0.00;;;;;-147.14;100.00;58812.66;6247121;22;48178;-61
2022/12/30 12:32:59;;;;;;;;;0.33;0.33;;;;;-147.14;100.00;58812.66;6247600;22;45358;-62
2022/12/30 12:35:34;;;;;;;;;0.00;0.00;;;;;-147.14;100.00;58812.66;6247974;22;45207;-62
2022/12/30 12:38:08;;;;;;;;;0.00;0.00;;;;;-147.14;100.00;58812.66;6247705;22;45471;-62
2022/12/30 12:40:52;;;;;;;;;0.00;0.00;;;;;-147.14;100.00;58812.66;6247333;22;46097;-61
2022/12/30 12:43:24;;;;;;;;;0.00;0.00;;;;;-147.14;100.00;58812.66;6219843;22;45249;-61
2022/12/30 12:46:09;;;;;;;;;0.00;0.00;;;;;-147.14;100.00;58812.66;6220575;22;45380;-62
2022/12/30 12:48:48;;;;;;;;;1.00;1.00;;;;;-147.14;100.00;58812.66;6220170;22;45459;-61
2022/12/30 12:51:28;;;;;;;;;0.00;0.00;;;;;-147.14;100.00;58812.66;6220305;22;45354;-61
2022/12/30 12:53:54;;;;;;;;;0.00;0.00;;;;;-147.14;100.00;58812.66;6246295;22;45225;-61
2022/12/30 12:56:29;;;;;;;;;0.00;0.00;;;;;-147.14;100.00;58812.66;6247578;22;45145;-62
2022/12/30 12:59:44;;;;;;;;;0.00;0.00;;;;;-147.14;100.00;58812.66;6247628;22;45324;-62
2022/12/30 13:02:22;;;;;;;;;2.00;0.00;;;;;-147.14;100.00;58812.66;6210284;22;45491;-61
2022/12/30 13:05:07;;;;;;;;;0.00;0.00;;;;;-147.14;100.00;58812.66;6246948;22;45275;-61
2022/12/30 13:07:48;;;;;;;;;0.00;0.00;;;;;-147.14;100.00;58812.66;6246043;22;45198;-62
2022/12/30 13:10:34;;;;;;;;;0.00;0.00;;;;;-147.14;100.00;58812.66;6247444;22;45300;-62
2022/12/30 13:13:02;;;;;;;;;0.00;0.00;;;;;-147.14;100.00;58812.66;6247267;22;45374;-61
2022/12/30 13:15:40;;;;;;;;;1.67;1.00;;;;;-147.14;100.00;58812.66;6247074;22;45311;-62
2022/12/30 13:18:20;;;;;;;;;0.00;0.00;;;;;-147.14;100.00;58812.66;6220004;22;45328;-63
2022/12/30 13:20:50;;;;;;;;;0.33;0.33;;;;;-147.14;100.00;58812.66;6220159;22;45215;-63
2022/12/30 13:23:17;;;;;;;;;0.00;0.00;;;;;-147.14;100.00;58812.66;6219723;22;45384;-63
2022/12/30 13:25:48;;;;;;;;;0.00;0.00;;;;;-147.14;100.00;58812.66;6219904;22;45371;-61
2022/12/30 13:28:22;;;;;;;;;0.00;0.00;;;;;-147.14;100.00;58812.66;6220340;22;45384;-62
2022/12/30 13:31:02;;;;;;;;;0.00;0.00;;;;;-147.14;100.00;58812.66;6244563;22;45420;-62
2022/12/30 13:33:42;;;;;;;;;0.00;0.00;;;;;-147.14;100.00;58812.66;6245465;22;46197;-62
2022/12/30 13:36:27;;;;;;;;;0.00;0.00;;;;;-147.14;100.00;58812.66;6247229;22;45249;-60
2022/12/30 13:39:00;;;;;;;;;0.00;0.00;;;;;-147.14;100.00;58812.66;6247291;22;45306;-62
2022/12/30 13:41:36;;;;;;;;;0.00;0.00;;;;;-147.14;100.00;58812.66;6219558;22;45430;-61
2022/12/30 13:44:03;;;;;;;;;0.00;0.00;;;;;-147.14;100.00;58812.66;6246974;22;45296;-61
2022/12/30 13:46:33;;;;;;;;;1.00;0.00;;;;;-147.14;100.00;58812.66;6219457;22;45307;-62
2022/12/30 13:49:05;;;;;;;;;0.00;0.00;;;;;-147.14;100.00;58812.66;6247290;22;45339;-61
2022/12/30 13:51:31;;;;;;;;;0.00;0.00;;;;;-147.14;100.00;58812.66;6247216;22;45336;-62
2022/12/30 13:54:15;;;;;;;;;0.00;0.00;;;;;-147.14;100.00;58812.66;6241053;22;65683;-61
2022/12/30 13:56:43;;;;;;;;;0.00;0.00;;;;;-147.14;100.00;58812.66;6219548;22;45312;-61
2022/12/30 13:59:25;;;;;;;;;0.00;0.00;;;;;-147.14;100.00;58812.66;6246818;22;45209;-61
2022/12/30 14:02:10;;;;;;;;;0.00;0.00;;;;;-147.14;100.00;58812.66;6218613;22;45407;-61
2022/12/30 14:04:53;;;;;;;;;1.00;0.00;;;;;-147.14;100.00;58812.66;6246738;22;45348;-61
2022/12/30 14:07:54;;;;;;;;;0.00;0.00;;;;;-147.14;100.00;58812.66;6249739;22;45280;-61
2022/12/30 14:10:22;;;;;;;;;0.00;0.00;;;;;-147.14;100.00;58812.66;6183988;23;55035;-61
2022/12/30 14:13:12;;;;;;;;;0.00;0.00;;;;;-147.14;100.00;58812.66;6235753;22;45365;-61
2022/12/30 14:15:37;;;;;;;;;0.00;0.00;;;;;-147.14;100.00;58812.66;6220451;22;46901;-61
2022/12/30 14:18:16;;;;;;;;;0.00;0.00;;;;;-147.14;100.00;58812.66;6248515;22;45339;-62
2022/12/30 14:20:52;;;;;;;;;0.00;0.00;;;;;-147.14;100.00;58812.66;6220851;22;45311;-61
2022/12/30 14:23:38;;;;;;;;;0.00;0.00;;;;;-147.14;100.00;58812.66;6221165;22;45349;-62
2022/12/30 14:26:18;;;;;;;;;0.00;0.00;;;;;-147.14;100.00;58812.66;6247886;22;45300;-61
2022/12/30 14:28:46;;;;;;;;;1.67;0.00;;;;;-147.14;100.00;58812.66;6248292;22;45336;-61
2022/12/30 14:31:31;;;;;;;;;0.00;0.00;;;;;-147.14;100.00;58812.66;6220607;22;45269;-62
2022/12/30 14:33:59;;;;;;;;;0.00;0.00;;;;;-147.14;100.00;58812.66;6195283;22;45467;-62
2022/12/30 14:36:27;;;;;;;;;0.00;0.00;;;;;-147.14;100.00;58812.66;6219468;22;45686;-62
2022/12/30 14:38:52;;;;;;;;;0.00;0.00;;;;;-147.14;100.00;58812.66;6221166;22;45730;-62
2022/12/30 14:41:20;;;;;;;;;2.33;0.00;;;;;-147.14;100.00;58812.66;6248193;22;45368;-62
2022/12/30 14:43:51;;;;;;;;;0.00;0.00;;;;;-147.14;100.00;58812.66;6221039;22;45284;-62
2022/12/30 14:46:40;;;;;;;;;0.00;0.00;;;;;-147.14;100.00;58812.66;6247205;22;45420;-62
2022/12/30 14:49:29;;;;;;;;;0.00;0.00;;;;;-147.14;100.00;58812.66;6247459;22;45213;-61
2022/12/30 14:51:58;;;;;;;;;0.00;0.00;;;;;-147.14;100.00;58812.66;6248418;22;45458;-61
2022/12/30 14:54:34;;;;;;;;;0.00;0.00;;;;;-147.14;100.00;58812.66;6248400;22;45265;-61
2022/12/30 14:57:09;;;;;;;;;0.33;0.33;;;;;-147.14;100.00;58812.66;6220588;22;45257;-61
2022/12/30 14:59:57;;;;;;;;;0.00;0.00;;;;;-147.14;100.00;58812.66;6247822;22;45276;-61
2022/12/30 15:02:32;;;;;;;;;0.00;0.00;;;;;-147.14;100.00;58812.66;6248333;22;45365;-61
2022/12/30 15:05:24;;;;;;;;;0.00;0.00;;;;;-147.14;100.00;58812.66;6248497;22;45225;-62
2022/12/30 15:08:05;;;;;;;;;0.00;0.00;;;;;-147.14;100.00;58812.66;6219231;22;45910;-62
2022/12/30 15:11:02;;;;;;;;;2.00;0.00;;;;;-147.14;100.00;58812.66;6247415;22;45326;-62
2022/12/30 15:13:40;;;;;;;;;0.00;0.00;;;;;-147.14;100.00;58812.66;6220938;22;45312;-62
2022/12/30 15:16:08;;;;;;;;;0.00;0.00;;;;;-147.14;100.00;58812.66;6246877;22;45391;-61
2022/12/30 15:18:34;;;;;;;;;0.00;0.00;;;;;-147.14;100.00;58812.66;6247767;22;45476;-61
2022/12/30 15:21:12;;;;;;;;;0.00;0.00;;;;;-147.14;100.00;58812.66;6220512;22;45327;-61
2022/12/30 15:23:37;;;;;;;;;0.00;0.00;;;;;-147.14;100.00;58812.66;6248300;22;45434;-61
2022/12/30 15:26:03;;;;;;;;;0.00;0.00;;;;;-147.14;100.00;58812.66;6246965;22;62276;-62
2022/12/30 15:28:30;;;;;;;;;0.00;0.00;;;;;-147.14;100.00;58812.66;6220832;22;45238;-61
2022/12/30 15:30:55;;;;;;;;;1.33;0.00;;;;;-147.14;100.00;58812.66;6247412;22;45351;-61
2022/12/30 15:33:20;;;;;;;;;0.00;0.00;;;;;-147.14;100.00;58812.66;6220821;22;45224;-61
2022/12/30 15:35:46;;;;;;;;;0.00;0.00;;;;;-147.14;100.00;58812.66;6220345;22;60898;-62
2022/12/30 15:38:14;;;;;;;;;0.00;0.00;;;;;-147.14;100.00;58812.66;6220546;22;46124;-62
2022/12/30 15:40:43;;;;;;;;;0.00;0.00;;;;;-147.14;100.00;58812.66;6247633;22;45463;-61
2022/12/30 15:43:14;;;;;;;;;0.33;0.33;;;;;-147.14;100.00;58812.66;6220883;22;45368;-61
2022/12/30 15:45:40;;;;;;;;;0.00;0.00;;;;;-147.14;100.00;58812.66;6220889;22;45292;-61
2022/12/30 15:48:22;;;;;;;;;2.33;2.33;;;;;-147.14;100.00;58812.66;6247372;22;46176;-61
2022/12/30 15:50:53;;;;;;;;;1.00;1.00;;;;;-147.14;100.00;58812.66;6219954;22;45238;-60
2022/12/30 15:53:21;;;;;;;;;0.00;0.00;;;;;-147.14;100.00;58812.66;6220672;22;45369;-61
2022/12/30 15:55:47;;;;;;;;;0.00;0.00;;;;;-147.14;100.00;58812.66;6220445;22;45118;-61
2022/12/30 15:58:19;;;;;;;;;4.67;4.67;;;;;-147.14;100.00;58812.66;6247728;22;45294;-62
2022/12/30 16:01:21;;;;;;;;;3.00;2.00;;;;;-147.14;100.00;58812.66;6220476;22;45350;-62
2022/12/30 16:04:00;;;;;;;;;3.00;3.00;;;;;-147.14;100.00;58812.66;6196451;22;45283;-62
2022/12/30 16:06:26;;;;;;;;;3.00;3.00;;;;;-147.14;100.00;58812.66;6220216;22;45503;-62
2022/12/30 16:08:53;;;;;;;;;3.67;3.33;;;;;-147.14;100.00;58812.66;6220968;22;45346;-61
2022/12/30 16:11:37;;;;;;;;;1.33;0.00;;;;;-147.14;100.00;58812.66;6218857;22;45623;-61
2022/12/30 16:14:28;;;;;;;;;2.00;2.00;;;;;-147.14;100.00;58812.66;6247619;22;45765;-61
2022/12/30 16:16:53;;;;;;;;;1.00;1.00;;;;;-147.14;100.00;58812.66;6247987;22;45558;-62
2022/12/30 16:19:21;;;;;;;;;0.00;0.00;;;;;-147.14;100.00;58812.66;6220718;22;46137;-61
2022/12/30 16:21:53;;;;;;;;;2.00;1.00;;;;;-147.14;100.00;58812.66;6247847;22;45272;-62
2022/12/30 16:24:34;;;;;;;;;0.00;0.00;;;;;-147.14;100.00;58812.66;6221237;22;45381;-62
2022/12/30 16:27:13;;;;;;;;;1.00;1.00;;;;;-147.14;100.00;58812.66;6220280;22;45325;-62
2022/12/30 16:29:38;;;;;;;;;4.00;2.00;;;;;-147.14;100.00;58812.66;6246967;22;45888;-61
2022/12/30 16:32:19;;;;;;;;;3.33;1.00;;;;;-147.14;100.00;58812.66;6220634;22;45396;-61
2022/12/30 16:34:45;;;;;;;;;1.00;1.00;;;;;-147.14;100.00;58812.66;6247674;22;45597;-62
2022/12/30 16:37:19;;;;;;;;;2.00;2.00;;;;;-147.14;100.00;58812.66;6219469;22;45209;-61
2022/12/30 16:39:45;;;;;;;;;2.33;2.33;;;;;-147.14;100.00;58812.66;6220313;22;46654;-62
2022/12/30 16:42:11;;;;;;;;;1.00;1.00;;;;;-147.14;100.00;58812.66;6219849;22;55601;-62
2022/12/30 16:44:36;;;;;;;;;2.00;2.00;;;;;-147.14;100.00;58812.66;6245372;22;45288;-61
2022/12/30 16:47:02;;;;;;;;;2.00;2.00;;;;;-147.14;100.00;58812.66;6246632;22;63717;-62
2022/12/30 16:49:27;;;;;;;;;1.00;0.00;;;;;-147.14;100.00;58812.66;6246896;22;65099;-61
2022/12/30 16:51:53;;;;;;;;;1.00;1.00;;;;;-147.14;100.00;58812.66;6247428;22;45320;-62
2022/12/30 16:54:23;;;;;;;;;2.00;2.00;;;;;-147.14;100.00;58812.66;6220535;22;45320;-62
2022/12/30 16:56:50;;;;;;;;;1.00;1.00;;;;;-147.14;100.00;58812.66;6247238;22;45423;-62
2022/12/30 16:59:16;;;;;;;;;1.00;1.00;;;;;-147.14;100.00;58812.66;6246737;22;46089;-61
2022/12/30 17:01:51;;;;;;;;;0.00;0.00;;;;;-147.14;100.00;58812.66;6220098;22;45289;-62
2022/12/30 17:04:19;;;;;;;;;2.00;0.33;;;;;-147.14;100.00;58812.66;6220200;22;45325;-62
2022/12/30 17:06:44;;;;;;;;;0.50;0.00;;;;;-147.14;100.00;58812.66;6247599;22;45091;-62
2022/12/30 17:09:11;;;;;;;;;0.00;0.00;;;;;-147.14;100.00;58812.66;6247278;22;45330;-61
2022/12/30 17:11:37;;;;;;;;;2.00;1.00;;;;;-147.14;100.00;58812.66;6220311;22;45254;-61
2022/12/30 17:14:03;;;;;;;;;1.00;1.00;;;;;-147.14;100.00;58812.66;6246372;22;61066;-61
2022/12/30 17:16:34;;;;;;;;;2.00;0.00;;;;;-147.14;100.00;58812.66;6247137;22;45371;-62
2022/12/30 17:19:01;;;;;;;;;0.00;0.00;;;;;-147.14;100.00;58812.66;6246518;22;63868;-61
2022/12/30 17:21:33;;;;;;;;;0.00;0.00;;;;;-147.14;100.00;58812.66;6247573;22;45300;-61
2022/12/30 17:23:59;;;;;;;;;1.50;1.50;;;;;-147.14;100.00;58812.66;6220513;22;45385;-61
2022/12/30 17:26:25;;;;;;;;;3.00;3.00;;;;;-147.14;100.00;58812.66;6247428;22;45218;-62
2022/12/30 17:28:51;;;;;;;;;0.25;0.25;;;;;-147.14;100.00;58812.66;6247213;22;45252;-61
2022/12/30 17:31:19;;;;;;;;;1.33;1.33;;;;;-147.14;100.00;58812.66;6246384;22;45210;-61
2022/12/30 17:33:44;;;;;;;;;0.67;0.67;;;;;-147.14;100.00;58812.66;6220082;22;45388;-61
2022/12/30 17:36:14;;;;;;;;;17.67;13.33;;;;;-147.14;100.00;58812.66;6220422;22;45548;-61
2022/12/30 17:38:40;;;;;;;;;0.67;0.67;;;;;-147.14;100.00;58812.66;6247068;22;45362;-62
2022/12/30 17:41:05;;;;;;;;;1.33;1.33;;;;;-147.14;100.00;58812.66;6248404;22;45351;-61
2022/12/30 17:43:31;;;;;;;;;1.00;1.00;;;;;-147.14;100.00;58812.66;6248019;22;53260;-62
2022/12/30 17:45:56;;;;;;;;;2.00;1.00;;;;;-147.14;100.00;58812.66;6221083;22;45415;-62
2022/12/30 17:48:22;;;;;;;;;1.33;1.33;;;;;-147.14;100.00;58812.66;6247982;22;52788;-61
2022/12/30 17:50:47;;;;;;;;;1.00;1.00;;;;;-147.14;100.00;58812.66;6248345;22;45370;-62
2022/12/30 17:53:13;;;;;;;;;2.00;2.00;;;;;-147.14;100.00;58812.66;6248369;22;45206;-62
2022/12/30 17:55:41;;;;;;;;;1.00;1.00;;;;;-147.14;100.00;58812.66;6248763;22;45481;-62
2022/12/30 17:58:07;;;;;;;;;0.25;0.25;;;;;-147.14;100.00;58812.66;6248067;22;45625;-62
2022/12/30 18:00:33;;;;;;;;;0.00;0.00;;;;;-147.14;100.00;58812.66;6221138;22;45379;-60
2022/12/30 18:02:58;;;;;;;;;1.00;1.00;;;;;-147.14;100.00;58812.66;6247504;22;58705;-61
2022/12/30 18:05:24;;;;;;;;;0.67;0.67;;;;;-147.14;100.00;58812.66;6246656;22;45463;-62
2022/12/30 18:07:50;;;;;;;;;2.33;1.33;;;;;-147.14;100.00;58812.66;6248063;22;46157;-61